Time;durP1;ratioP1;P1;durP2;ratioP2;P2;SDS_P1;SDS_P2;PMS_P1;PMS_P2;Temp;Humidity;BMP_temperature;BMP_pressure;BME280_temperature;BME280_humidity;BME280_pressure;Samples;Min_cycle;Max_cycle;Signal;HPM_P1;HPM_P2
2021/12/23 00:01:53;;;;;;;1.97;1.77;;;17.50;59.20;;;;;;10403734;28;20209;-66
2021/12/23 00:07:15;;;;;;;2.37;2.07;;;17.50;59.10;;;;;;10408946;28;20206;-66
2021/12/23 00:12:39;;;;;;;2.47;2.27;;;17.50;59.10;;;;;;10405873;28;20205;-66
2021/12/23 00:18:15;;;;;;;2.10;1.90;;;17.50;59.20;;;;;;10408911;28;20348;-66
2021/12/23 00:23:41;;;;;;;2.30;2.10;;;17.40;59.00;;;;;;10408182;28;20197;-65
2021/12/23 00:29:03;;;;;;;2.00;1.80;;;17.50;59.10;;;;;;10407663;28;20213;-65
2021/12/23 00:34:27;;;;;;;2.20;1.90;;;17.40;59.00;;;;;;10407955;28;20193;-66
2021/12/23 00:39:49;;;;;;;2.80;2.17;;;17.40;59.10;;;;;;10406901;28;20232;-66
2021/12/23 00:45:11;;;;;;;2.37;1.80;;;17.50;59.10;;;;;;10408199;28;20852;-65
2021/12/23 00:50:35;;;;;;;2.07;1.87;;;17.40;59.10;;;;;;10408158;28;20226;-66
2021/12/23 00:55:57;;;;;;;2.10;1.80;;;17.40;59.10;;;;;;10408442;28;20205;-66
2021/12/23 01:01:19;;;;;;;2.20;1.90;;;17.40;59.10;;;;;;10407280;28;20582;-66
2021/12/23 01:06:43;;;;;;;2.40;1.90;;;17.40;59.10;;;;;;10407545;28;20347;-66
2021/12/23 01:12:09;;;;;;;1.83;1.60;;;17.40;59.10;;;;;;10408322;28;20237;-66
2021/12/23 01:17:52;;;;;;;2.27;1.77;;;17.50;59.10;;;;;;10415510;28;20356;-66
2021/12/23 01:23:16;;;;;;;2.00;1.80;;;17.50;59.10;;;;;;10415527;28;20255;-66
2021/12/23 01:28:38;;;;;;;2.23;2.00;;;17.40;59.10;;;;;;10414695;28;20288;-66
2021/12/23 01:34:00;;;;;;;2.07;1.87;;;17.40;59.10;;;;;;10413793;28;20198;-66
2021/12/23 01:39:24;;;;;;;2.47;2.10;;;17.40;59.10;;;;;;10413139;28;20232;-66
2021/12/23 01:44:46;;;;;;;2.13;1.60;;;17.50;59.10;;;;;;10414638;28;20660;-66
2021/12/23 01:50:10;;;;;;;2.47;1.60;;;17.40;59.10;;;;;;10413583;28;20222;-66
2021/12/23 01:55:36;;;;;;;2.37;1.87;;;17.40;59.10;;;;;;10413570;28;20209;-66
2021/12/23 02:00:58;;;;;;;2.97;2.00;;;17.40;59.10;;;;;;10411791;28;20213;-66
2021/12/23 02:06:20;;;;;;;2.27;1.80;;;17.40;59.10;;;;;;10413598;28;20201;-66
2021/12/23 02:11:45;;;;;;;2.10;1.90;;;17.50;59.10;;;;;;10413402;28;20190;-66
2021/12/23 02:17:07;;;;;;;2.17;1.90;;;17.50;59.10;;;;;;10412561;28;20290;-67
2021/12/23 02:22:30;;;;;;;1.93;1.73;;;17.40;59.10;;;;;;10412381;28;20194;-66
2021/12/23 02:27:54;;;;;;;2.37;2.13;;;17.40;59.00;;;;;;10411447;28;20225;-66
2021/12/23 02:33:16;;;;;;;2.30;1.80;;;17.40;59.00;;;;;;10412606;28;20225;-66
2021/12/23 02:38:39;;;;;;;2.10;1.60;;;17.40;59.00;;;;;;10409569;28;20221;-65
2021/12/23 02:44:01;;;;;;;1.70;1.60;;;17.40;59.00;;;;;;10412481;28;20567;-66
2021/12/23 02:49:23;;;;;;;2.23;1.73;;;17.40;59.10;;;;;;10427876;22;20245;-68
2021/12/23 02:54:56;;;;;;;2.30;1.60;;;17.40;59.10;;;;;;10452066;28;20707;-68
2021/12/23 03:00:18;;;;;;;2.17;1.70;;;17.50;59.10;;;;;;10451733;28;20228;-67
2021/12/23 03:05:40;;;;;;;1.43;1.30;;;17.40;59.10;;;;;;10453331;28;20204;-67
2021/12/23 03:11:04;;;;;;;2.00;1.80;;;17.40;59.10;;;;;;10444655;28;20224;-67
2021/12/23 03:16:31;;;;;;;2.23;1.63;;;17.40;59.00;;;;;;10411483;28;20194;-67
2021/12/23 03:21:53;;;;;;;1.67;1.40;;;17.40;59.10;;;;;;10447974;28;20221;-67
2021/12/23 03:27:17;;;;;;;1.63;1.53;;;17.40;59.10;;;;;;10452782;28;20576;-67
2021/12/23 03:32:39;;;;;;;2.20;1.83;;;17.40;59.10;;;;;;10452527;28;20197;-67
2021/12/23 03:38:01;;;;;;;1.67;1.57;;;17.40;59.10;;;;;;10451414;28;20615;-67
2021/12/23 03:43:25;;;;;;;2.03;1.73;;;17.40;59.10;;;;;;10450757;28;20563;-68
2021/12/23 03:48:47;;;;;;;2.53;1.80;;;17.40;59.10;;;;;;10446829;28;20723;-67
2021/12/23 03:54:09;;;;;;;1.90;1.50;;;17.40;59.10;;;;;;10452260;28;20193;-67
2021/12/23 03:59:33;;;;;;;2.93;2.00;;;17.40;59.10;;;;;;10450939;28;20228;-67
2021/12/23 04:04:55;;;;;;;1.90;1.70;;;17.40;59.10;;;;;;10450682;28;20692;-67
2021/12/23 04:10:21;;;;;;;1.97;1.67;;;17.40;59.10;;;;;;10450775;28;20236;-68
2021/12/23 04:15:44;;;;;;;1.70;1.60;;;17.40;59.00;;;;;;10451433;28;20208;-67
2021/12/23 04:21:06;;;;;;;1.93;1.70;;;17.40;59.00;;;;;;10451254;28;20224;-68
2021/12/23 04:26:29;;;;;;;1.77;1.53;;;17.40;59.10;;;;;;10450504;28;20204;-66
2021/12/23 04:31:53;;;;;;;1.50;1.40;;;17.40;59.10;;;;;;10450569;28;20216;-67
2021/12/23 04:37:16;;;;;;;1.53;1.30;;;17.40;59.10;;;;;;10440050;28;20209;-68
2021/12/23 04:42:38;;;;;;;1.80;1.70;;;17.40;59.00;;;;;;10450445;28;20188;-67
2021/12/23 04:48:01;;;;;;;3.13;1.60;;;17.40;59.10;;;;;;10452730;28;20233;-67
2021/12/23 04:53:24;;;;;;;1.93;1.70;;;17.40;59.00;;;;;;10458748;28;20200;-67
2021/12/23 04:58:46;;;;;;;3.60;1.90;;;17.40;59.00;;;;;;10457677;28;20220;-67
2021/12/23 05:04:10;;;;;;;2.33;1.70;;;17.50;59.10;;;;;;10457907;28;20197;-67
2021/12/23 05:09:32;;;;;;;1.70;1.60;;;17.40;59.00;;;;;;10457740;28;20762;-67
2021/12/23 05:14:54;;;;;;;1.70;1.40;;;17.50;59.10;;;;;;10458023;28;20193;-67
2021/12/23 05:20:19;;;;;;;2.00;1.60;;;17.40;59.00;;;;;;10457593;28;20500;-67
2021/12/23 05:25:41;;;;;;;1.33;1.23;;;17.40;59.00;;;;;;10458373;28;20580;-67
2021/12/23 05:31:04;;;;;;;2.10;1.67;;;17.40;59.00;;;;;;10457398;28;20691;-67
2021/12/23 05:36:28;;;;;;;1.70;1.60;;;17.50;59.00;;;;;;10455849;28;20664;-67
2021/12/23 05:41:50;;;;;;;1.60;1.50;;;17.40;59.00;;;;;;10449525;28;20232;-67
2021/12/23 05:47:12;;;;;;;1.53;1.37;;;17.40;58.90;;;;;;10456775;28;20197;-67
2021/12/23 05:52:36;;;;;;;1.97;1.70;;;17.50;59.00;;;;;;10455542;28;20679;-67
2021/12/23 05:57:58;;;;;;;1.50;1.40;;;17.40;58.90;;;;;;10455638;28;20213;-67
2021/12/23 06:03:20;;;;;;;1.93;1.73;;;17.40;59.40;;;;;;10454800;28;20782;-67
2021/12/23 06:08:44;;;;;;;1.90;1.70;;;17.40;58.90;;;;;;10455803;28;20225;-67
2021/12/23 06:14:06;;;;;;;1.23;1.13;;;17.40;58.90;;;;;;10431757;28;20680;-67
2021/12/23 06:19:29;;;;;;;1.43;1.33;;;17.40;58.90;;;;;;10441867;28;20228;-67
2021/12/23 06:24:52;;;;;;;1.43;1.27;;;17.40;58.90;;;;;;10455437;28;20250;-67
2021/12/23 06:30:17;;;;;;;2.00;1.80;;;17.50;58.90;;;;;;10454978;28;20719;-67
2021/12/23 06:35:40;;;;;;;1.60;1.43;;;17.40;59.10;;;;;;10453973;28;20248;-67
2021/12/23 06:41:04;;;;;;;1.67;1.50;;;17.50;58.90;;;;;;10453003;28;20251;-67
2021/12/23 06:46:26;;;;;;;1.50;1.40;;;17.50;58.90;;;;;;10454391;28;20201;-67
2021/12/23 06:51:48;;;;;;;1.77;1.60;;;17.40;58.90;;;;;;10453549;28;20221;-67
2021/12/23 06:57:11;;;;;;;1.30;1.20;;;17.40;58.80;;;;;;10454349;28;20202;-68
2021/12/23 07:02:37;;;;;;;1.30;1.20;;;17.40;58.80;;;;;;10453434;28;20703;-67
2021/12/23 07:08:07;;;;;;;2.23;1.73;;;17.40;58.90;;;;;;10454432;28;20231;-68
2021/12/23 07:13:31;;;;;;;1.87;1.67;;;17.40;58.90;;;;;;10419981;28;20198;-68
2021/12/23 07:18:53;;;;;;;1.60;1.50;;;17.40;58.90;;;;;;10439251;28;20798;-67
2021/12/23 07:24:16;;;;;;;1.63;1.40;;;17.40;58.90;;;;;;10455002;28;20212;-67
2021/12/23 07:29:39;;;;;;;2.33;1.60;;;17.40;58.90;;;;;;10437225;28;20220;-69
2021/12/23 07:35:02;;;;;;;1.83;1.47;;;17.40;58.80;;;;;;10442880;28;20209;-69
2021/12/23 07:40:24;;;;;;;1.90;1.70;;;17.30;58.90;;;;;;10448353;28;20225;-68
2021/12/23 07:45:48;;;;;;;1.87;1.47;;;17.30;59.10;;;;;;10435466;28;20197;-68
2021/12/23 07:51:10;;;;;;;2.20;1.27;;;17.30;59.20;;;;;;10451423;28;20228;-68
2021/12/23 07:56:32;;;;;;;1.47;1.30;;;17.30;59.20;;;;;;10451149;28;20197;-67
2021/12/23 08:01:58;;;;;;;2.37;1.80;;;17.30;59.30;;;;;;10450142;28;20224;-68
2021/12/23 08:07:21;;;;;;;2.40;1.63;;;17.30;59.40;;;;;;10450734;28;20204;-66
2021/12/23 08:12:43;;;;;;;2.43;1.40;;;17.30;59.50;;;;;;10452511;28;20189;-68
2021/12/23 08:18:06;;;;;;;2.60;1.73;;;17.30;59.50;;;;;;10443754;28;20243;-68
2021/12/23 08:23:29;;;;;;;1.40;1.30;;;17.30;59.60;;;;;;10450236;28;20209;-68
2021/12/23 08:28:51;;;;;;;2.00;1.40;;;17.30;59.60;;;;;;10453128;28;20631;-68
2021/12/23 08:34:14;;;;;;;1.57;1.47;;;17.30;59.60;;;;;;10455068;28;20920;-68
2021/12/23 08:39:36;;;;;;;1.60;1.50;;;17.30;59.70;;;;;;10446744;28;20227;-68
2021/12/23 08:44:59;;;;;;;4.45;1.70;;;17.30;59.70;;;;;;10447315;28;20466;-69
2021/12/23 08:50:25;;;;;;;2.38;1.70;;;17.70;58.20;;;;;;10445839;28;20459;-68
2021/12/23 08:55:47;;;;;;;1.60;1.50;;;18.00;57.90;;;;;;10450828;28;20668;-68
2021/12/23 09:01:11;;;;;;;2.27;1.30;;;17.70;58.90;;;;;;10447803;28;20221;-68
2021/12/23 09:06:34;;;;;;;2.57;1.80;;;17.60;59.20;;;;;;10448560;28;20209;-67
2021/12/23 09:11:56;;;;;;;3.33;1.67;;;17.50;59.20;;;;;;10450301;28;20213;-68
2021/12/23 09:17:19;;;;;;;2.40;1.83;;;17.50;59.30;;;;;;10448623;28;20587;-68
2021/12/23 09:22:42;;;;;;;2.10;1.80;;;17.50;59.30;;;;;;10442557;28;20232;-68
2021/12/23 09:28:14;;;;;;;2.43;2.03;;;17.50;59.30;;;;;;10446737;28;20228;-67
2021/12/23 09:33:37;;;;;;;2.33;1.67;;;17.50;59.30;;;;;;10441373;28;20201;-67
2021/12/23 09:39:00;;;;;;;2.77;2.37;;;17.40;59.80;;;;;;10446248;28;20253;-68
2021/12/23 09:44:23;;;;;;;2.40;2.07;;;17.40;59.20;;;;;;10448660;28;20243;-69
2021/12/23 09:49:46;;;;;;;2.30;2.10;;;17.50;59.30;;;;;;10443152;28;20572;-69
2021/12/23 09:55:11;;;;;;;2.00;1.80;;;17.50;59.30;;;;;;10447679;28;20197;-69
2021/12/23 10:00:37;;;;;;;2.00;1.83;;;17.50;59.30;;;;;;10441936;28;20232;-69
2021/12/23 10:06:00;;;;;;;2.60;2.20;;;17.50;59.20;;;;;;10446288;28;20204;-69
2021/12/23 10:11:31;;;;;;;1.80;1.70;;;17.50;59.20;;;;;;10447737;28;20619;-69
2021/12/23 10:39:51;;;;;;;1.87;1.77;;;17.50;59.20;;;;;;10442253;28;20223;-69
2021/12/23 10:45:16;;;;;;;2.00;1.70;;;17.50;59.20;;;;;;10442271;28;20205;-67
2021/12/23 10:50:43;;;;;;;1.50;1.40;;;17.50;59.10;;;;;;10447670;28;20221;-67
2021/12/23 11:02:17;;;;;;;1.97;1.50;;;17.50;59.10;;;;;;10427194;22;20235;-65
2021/12/23 11:07:46;;;;;;;1.70;1.60;;;17.50;58.90;;;;;;10396218;28;20222;-62
2021/12/23 11:41:37;;;;;;;1.90;1.70;;;17.50;58.90;;;;;;10387467;28;20249;-64
2021/12/23 11:47:06;;;;;;;2.33;1.70;;;17.40;58.80;;;;;;10400200;28;20218;-65
2021/12/23 11:52:33;;;;;;;3.92;2.00;;;17.40;58.80;;;;;;10386079;28;20409;-66
2021/12/23 11:57:56;;;;;;;3.53;1.77;;;18.30;56.10;;;;;;10388503;28;20213;-66
2021/12/23 12:03:18;;;;;;;2.47;1.53;;;17.80;57.70;;;;;;10401221;28;20225;-65
2021/12/23 12:08:42;;;;;;;2.20;1.40;;;17.60;58.20;;;;;;10395561;28;20233;-66
2021/12/23 12:14:04;;;;;;;1.87;1.70;;;17.60;58.50;;;;;;10400408;28;20200;-65
2021/12/23 12:19:51;;;;;;;2.10;1.50;;;17.50;58.50;;;;;;10399728;28;20229;-65
2021/12/23 12:25:57;;;;;;;3.07;1.70;;;17.50;58.40;;;;;;10400165;28;20287;-64
2021/12/23 12:31:20;;;;;;;1.70;1.60;;;17.50;58.40;;;;;;10399480;28;20244;-66
2021/12/23 12:36:45;;;;;;;1.77;1.67;;;17.40;58.60;;;;;;10394587;28;20216;-63
2021/12/23 12:42:28;;;;;;;2.10;1.60;;;17.40;58.50;;;;;;10402719;28;20694;-65
2021/12/23 12:47:55;;;;;;;1.47;1.33;;;17.50;58.60;;;;;;10389407;28;20244;-67
2021/12/23 12:53:20;;;;;;;2.90;1.90;;;17.40;58.60;;;;;;10388280;28;21138;-64
2021/12/23 12:58:51;;;;;;;2.20;1.60;;;18.00;56.90;;;;;;10388970;28;20225;-63
2021/12/23 13:04:22;;;;;;;1.90;1.63;;;17.70;58.00;;;;;;10389602;28;20303;-64
2021/12/23 13:09:52;;;;;;;2.20;1.47;;;17.60;58.40;;;;;;10396058;28;20292;-63
2021/12/23 13:15:19;;;;;;;2.90;1.80;;;17.60;58.50;;;;;;10392377;28;20202;-63
2021/12/23 13:20:48;;;;;;;2.57;1.80;;;17.50;58.60;;;;;;10404822;28;20249;-62
2021/12/23 13:26:12;;;;;;;4.20;1.77;;;17.50;58.60;;;;;;10391888;28;20197;-63
2021/12/23 13:31:38;;;;;;;1.87;1.50;;;17.50;58.70;;;;;;10393747;28;20199;-62
2021/12/23 13:37:03;;;;;;;2.00;1.73;;;17.50;58.70;;;;;;10398053;28;20580;-63
2021/12/23 13:42:25;;;;;;;1.90;1.70;;;17.50;58.80;;;;;;10391379;28;20280;-63
2021/12/23 13:47:52;;;;;;;2.20;1.80;;;17.50;58.70;;;;;;10395704;28;21077;-62
2021/12/23 13:53:16;;;;;;;1.93;1.67;;;17.40;58.80;;;;;;10397217;28;20181;-65
2021/12/23 13:58:38;;;;;;;2.87;2.00;;;17.40;59.10;;;;;;10402617;28;20253;-66
2021/12/23 14:04:02;;;;;;;2.80;1.90;;;17.40;59.10;;;;;;10409914;28;20224;-66
2021/12/23 14:09:31;;;;;;;2.10;1.70;;;17.40;59.10;;;;;;10409365;28;20218;-64
2021/12/23 14:15:00;;;;;;;2.50;2.00;;;17.40;59.30;;;;;;10409627;28;20197;-63
2021/12/23 14:26:09;;;;;;;1.77;1.50;;;17.40;59.70;;;;;;10409244;28;20228;-64
2021/12/23 14:31:33;;;;;;;3.13;1.87;;;17.40;59.60;;;;;;10403270;28;20671;-63
2021/12/23 14:36:59;;;;;;;3.53;2.83;;;17.40;59.70;;;;;;10409755;28;20221;-63
2021/12/23 14:42:23;;;;;;;2.90;2.60;;;17.50;58.70;;;;;;10409417;28;20221;-64
2021/12/23 14:47:59;;;;;;;4.57;2.77;;;17.40;59.00;;;;;;10410033;28;20213;-64
2021/12/23 14:53:22;;;;;;;3.67;2.83;;;17.50;58.70;;;;;;10410967;28;20197;-64
2021/12/23 14:58:44;;;;;;;3.77;2.50;;;17.40;58.80;;;;;;10396009;28;20703;-63
2021/12/23 15:04:09;;;;;;;3.80;2.57;;;17.50;58.80;;;;;;10409462;28;20221;-64
2021/12/23 15:09:34;;;;;;;3.60;2.70;;;17.40;58.70;;;;;;10408895;28;20228;-63
2021/12/23 15:14:57;;;;;;;3.27;2.20;;;17.50;58.70;;;;;;10390067;28;20576;-63
2021/12/23 15:20:25;;;;;;;2.70;2.07;;;17.50;58.70;;;;;;10407577;28;20222;-65
2021/12/23 15:25:49;;;;;;;2.70;2.40;;;17.50;58.80;;;;;;10407440;28;20378;-63
2021/12/23 15:31:17;;;;;;;3.43;2.20;;;17.50;58.80;;;;;;10397158;28;20225;-63
2021/12/23 15:36:42;;;;;;;3.07;2.47;;;17.50;58.80;;;;;;10404315;28;20194;-63
2021/12/23 15:42:08;;;;;;;4.20;2.10;;;17.50;58.80;;;;;;10406583;28;20213;-62
2021/12/23 15:47:30;;;;;;;2.77;2.17;;;17.50;58.80;;;;;;10406747;28;20225;-63
2021/12/23 15:52:53;;;;;;;3.00;2.30;;;17.50;58.90;;;;;;10407004;28;20224;-62
2021/12/23 15:58:18;;;;;;;2.40;2.13;;;17.50;58.90;;;;;;10400059;28;20691;-64
2021/12/23 16:03:41;;;;;;;3.17;2.60;;;17.50;59.00;;;;;;10406610;28;20225;-63
2021/12/23 16:09:03;;;;;;;3.60;2.33;;;17.50;59.00;;;;;;10405781;28;20228;-62
2021/12/23 16:14:28;;;;;;;3.37;2.47;;;17.50;58.90;;;;;;10405221;28;20198;-64
2021/12/23 16:19:50;;;;;;;4.53;2.50;;;17.50;59.00;;;;;;10402492;28;20279;-62
2021/12/23 16:25:13;;;;;;;3.67;2.07;;;17.50;59.10;;;;;;10402202;28;20205;-63
2021/12/23 16:30:37;;;;;;;3.17;2.37;;;17.50;59.10;;;;;;10399272;28;20240;-65
2021/12/23 16:35:59;;;;;;;4.17;2.37;;;17.50;59.10;;;;;;10402138;28;20336;-63
2021/12/23 16:41:22;;;;;;;3.50;1.90;;;17.50;59.10;;;;;;10398180;28;20217;-63
2021/12/23 16:46:45;;;;;;;3.13;2.50;;;17.50;59.10;;;;;;10403957;28;20190;-65
2021/12/23 16:52:08;;;;;;;2.83;2.10;;;17.50;59.20;;;;;;10412145;28;20682;-63
2021/12/23 16:57:34;;;;;;;4.07;2.57;;;17.50;59.20;;;;;;10405411;28;20687;-63
2021/12/23 17:02:58;;;;;;;2.27;2.00;;;17.50;59.40;;;;;;10407402;28;20304;-63
2021/12/23 17:08:21;;;;;;;2.80;2.13;;;17.50;59.50;;;;;;10446725;23;20262;-66
2021/12/23 17:13:49;;;;;;;2.67;2.43;;;17.50;59.70;;;;;;10453109;28;20205;-66
2021/12/23 17:19:13;;;;;;;2.73;2.20;;;17.50;59.80;;;;;;10466025;28;20217;-67
2021/12/23 17:24:35;;;;;;;4.23;2.13;;;17.50;59.80;;;;;;10452090;28;20225;-66
2021/12/23 17:29:58;;;;;;;3.03;2.27;;;17.50;59.80;;;;;;10459746;28;20588;-66
2021/12/23 17:35:22;;;;;;;3.23;2.20;;;17.50;59.80;;;;;;10459436;28;20196;-66
2021/12/23 17:40:44;;;;;;;3.10;2.20;;;17.50;59.80;;;;;;10447687;28;20225;-69
2021/12/23 17:46:06;;;;;;;2.70;2.23;;;17.50;59.70;;;;;;10442462;28;20884;-69
2021/12/23 17:51:30;;;;;;;4.90;2.60;;;17.50;59.70;;;;;;10451791;28;20212;-69
2021/12/23 17:56:52;;;;;;;3.07;2.10;;;17.50;59.60;;;;;;10448334;28;20233;-69
2021/12/23 18:02:15;;;;;;;3.17;2.17;;;17.50;59.60;;;;;;10449511;28;20228;-69
2021/12/23 18:07:39;;;;;;;2.93;2.10;;;17.50;59.60;;;;;;10448034;28;20275;-68
2021/12/23 18:13:01;;;;;;;3.37;2.00;;;17.50;59.60;;;;;;10456412;28;20663;-68
2021/12/23 18:18:24;;;;;;;4.13;2.47;;;17.50;59.60;;;;;;10450049;28;20581;-68
2021/12/23 18:23:47;;;;;;;2.60;2.10;;;17.50;59.50;;;;;;10449122;28;21073;-69
2021/12/23 18:29:09;;;;;;;2.80;2.00;;;17.50;59.50;;;;;;10448148;28;20268;-68
2021/12/23 18:34:34;;;;;;;2.97;2.17;;;17.50;59.50;;;;;;10448813;28;20223;-69
2021/12/23 18:39:58;;;;;;;4.13;2.60;;;17.60;59.50;;;;;;10445816;28;20447;-68
2021/12/23 18:45:22;;;;;;;2.63;2.27;;;18.20;57.20;;;;;;10459674;28;20194;-69
2021/12/23 18:50:44;;;;;;;3.67;2.50;;;17.80;58.40;;;;;;10449516;28;20217;-68
2021/12/23 18:56:09;;;;;;;2.87;2.33;;;17.70;58.90;;;;;;10452995;28;20223;-69
2021/12/23 19:01:32;;;;;;;2.53;2.20;;;17.60;59.10;;;;;;10452595;28;20220;-69
2021/12/23 19:06:56;;;;;;;2.23;2.00;;;17.60;59.20;;;;;;10450596;28;20691;-68
2021/12/23 19:12:19;;;;;;;2.67;2.07;;;17.60;59.30;;;;;;10436074;28;20284;-69
2021/12/23 19:17:41;;;;;;;3.23;2.53;;;17.60;59.50;;;;;;10446815;28;20727;-68
2021/12/23 19:23:03;;;;;;;3.07;2.33;;;17.60;59.50;;;;;;10446897;28;20691;-68
2021/12/23 19:28:27;;;;;;;3.87;2.23;;;17.60;59.60;;;;;;10444346;28;20232;-68
2021/12/23 19:33:49;;;;;;;3.47;2.53;;;17.60;59.50;;;;;;10442346;28;20197;-68
2021/12/23 19:39:12;;;;;;;2.60;2.03;;;17.60;59.60;;;;;;10447760;28;20224;-68
2021/12/23 19:44:35;;;;;;;4.70;2.67;;;17.60;59.60;;;;;;10443309;28;20323;-68
2021/12/23 19:49:58;;;;;;;3.07;2.10;;;17.60;59.70;;;;;;10459332;28;20226;-68
2021/12/23 19:55:20;;;;;;;3.10;2.33;;;17.60;59.70;;;;;;10461168;28;20201;-69
2021/12/23 20:00:44;;;;;;;2.80;2.50;;;17.60;59.70;;;;;;10438611;28;20310;-69
2021/12/23 20:06:06;;;;;;;3.00;2.33;;;17.60;59.70;;;;;;10451366;28;20201;-69
2021/12/23 20:11:29;;;;;;;2.47;2.27;;;17.60;59.70;;;;;;10455924;28;20236;-69
2021/12/23 20:16:52;;;;;;;2.63;2.07;;;17.60;59.70;;;;;;10445494;28;20220;-68
2021/12/23 20:22:14;;;;;;;3.73;2.40;;;17.60;59.70;;;;;;10456096;28;20564;-69
2021/12/23 20:27:37;;;;;;;3.07;2.27;;;17.60;59.80;;;;;;10412309;28;20265;-67
2021/12/23 20:33:01;;;;;;;3.27;2.10;;;17.60;60.00;;;;;;10438772;28;20545;-68
2021/12/23 20:38:23;;;;;;;3.07;2.63;;;17.60;60.20;;;;;;10448411;28;20224;-67
2021/12/23 20:43:45;;;;;;;5.43;2.73;;;17.50;60.20;;;;;;10444161;28;20675;-67
2021/12/23 20:49:09;;;;;;;3.67;2.83;;;17.50;60.20;;;;;;10443523;28;20223;-67
2021/12/23 20:54:38;;;;;;;3.30;2.80;;;17.50;60.30;;;;;;10441281;28;20671;-67
2021/12/23 21:00:01;;;;;;;3.80;2.50;;;17.50;60.30;;;;;;10439662;28;20245;-67
2021/12/23 21:05:25;;;;;;;3.87;3.13;;;17.50;60.30;;;;;;10440049;28;20233;-67
2021/12/23 21:10:47;;;;;;;3.23;2.60;;;17.50;60.40;;;;;;10441346;28;20217;-67
2021/12/23 21:16:10;;;;;;;4.03;2.70;;;17.50;60.40;;;;;;10443996;28;20288;-67
2021/12/23 21:21:36;;;;;;;3.63;2.60;;;17.50;60.50;;;;;;10437876;28;20635;-66
2021/12/23 21:26:58;;;;;;;2.67;2.23;;;17.50;60.50;;;;;;10439213;28;20217;-66
2021/12/23 21:32:20;;;;;;;3.40;2.73;;;17.50;60.50;;;;;;10446384;28;20194;-67
2021/12/23 21:37:43;;;;;;;3.23;2.43;;;17.50;60.50;;;;;;10448183;28;20703;-67
2021/12/23 21:43:06;;;;;;;3.00;2.47;;;17.50;60.50;;;;;;10448430;28;20268;-68
2021/12/23 21:48:28;;;;;;;2.60;2.40;;;17.40;60.50;;;;;;10450203;28;20216;-67
2021/12/23 21:53:52;;;;;;;3.00;2.10;;;17.40;60.50;;;;;;10448599;28;20205;-67
2021/12/23 21:59:15;;;;;;;3.50;2.37;;;17.40;60.50;;;;;;10445761;28;20224;-67
2021/12/23 22:04:37;;;;;;;3.17;2.43;;;17.40;60.50;;;;;;10443719;28;20213;-66
2021/12/23 22:10:00;;;;;;;2.80;2.13;;;17.40;60.50;;;;;;10454571;28;20232;-66
2021/12/23 22:15:25;;;;;;;3.17;2.57;;;17.40;60.60;;;;;;10473126;28;20584;-67
2021/12/23 22:20:47;;;;;;;2.73;2.10;;;17.40;60.60;;;;;;10454765;28;20224;-67
2021/12/23 22:26:10;;;;;;;3.70;2.63;;;17.40;60.60;;;;;;10485247;28;20668;-67
2021/12/23 22:31:32;;;;;;;3.13;2.40;;;17.40;60.70;;;;;;10455690;28;20216;-70
2021/12/23 22:36:55;;;;;;;3.03;2.33;;;17.40;60.60;;;;;;10456295;28;20213;-66
2021/12/23 22:42:18;;;;;;;3.03;2.23;;;17.40;60.70;;;;;;10455218;28;20216;-67
2021/12/23 22:47:41;;;;;;;3.30;2.33;;;17.40;60.60;;;;;;10455533;28;20217;-66
2021/12/23 22:53:03;;;;;;;3.43;2.50;;;17.30;60.60;;;;;;10460814;28;20200;-66
2021/12/23 22:58:27;;;;;;;2.93;2.27;;;17.30;60.60;;;;;;10495202;28;20208;-66
2021/12/23 23:03:51;;;;;;;2.53;2.27;;;17.40;60.70;;;;;;10457534;28;20279;-66
2021/12/23 23:09:14;;;;;;;2.73;2.07;;;17.30;60.70;;;;;;10458723;22;20577;-75
2021/12/23 23:14:47;;;;;;;3.77;2.43;;;17.40;60.70;;;;;;10405111;28;20199;-72
2021/12/23 23:20:10;;;;;;;2.70;2.07;;;17.30;60.70;;;;;;10401082;28;20592;-72
2021/12/23 23:25:38;;;;;;;2.83;2.40;;;17.30;60.70;;;;;;10382074;28;20229;-72
2021/12/23 23:36:58;;;;;;;2.77;2.50;;;17.40;60.80;;;;;;10411723;28;20185;-72
2021/12/23 23:42:27;;;;;;;2.57;2.10;;;17.30;60.70;;;;;;10394449;28;20593;-72
2021/12/23 23:47:51;;;;;;;2.43;2.17;;;17.30;60.70;;;;;;10410563;28;20610;-72
2021/12/23 23:53:17;;;;;;;2.10;1.90;;;17.30;60.70;;;;;;10410078;28;20189;-72
2021/12/23 23:58:42;;;;;;;2.10;1.90;;;17.40;60.80;;;;;;10380893;28;20225;-72
